sensor_id;sensor_type;location;lat;lon;timestamp;P1;durP1;ratioP1;P2;durP2;ratioP2
53694;SDS011;39588;51.124;7.190;2022-09-24T00:02:13;4.83;;;3.10;;
53694;SDS011;39588;51.124;7.190;2022-09-24T00:04:39;3.40;;;3.10;;
53694;SDS011;39588;51.124;7.190;2022-09-24T00:07:04;7.23;;;2.57;;
53694;SDS011;39588;51.124;7.190;2022-09-24T00:09:30;6.07;;;2.97;;
53694;SDS011;39588;51.124;7.190;2022-09-24T00:11:56;10.33;;;3.43;;
53694;SDS011;39588;51.124;7.190;2022-09-24T00:14:24;3.40;;;3.10;;
53694;SDS011;39588;51.124;7.190;2022-09-24T00:16:50;16.27;;;3.40;;
53694;SDS011;39588;51.124;7.190;2022-09-24T00:19:15;6.37;;;3.13;;
53694;SDS011;39588;51.124;7.190;2022-09-24T00:21:41;7.33;;;3.63;;
53694;SDS011;39588;51.124;7.190;2022-09-24T00:24:09;4.40;;;3.10;;
53694;SDS011;39588;51.124;7.190;2022-09-24T00:26:57;4.00;;;3.20;;
53694;SDS011;39588;51.124;7.190;2022-09-24T00:29:23;4.57;;;2.93;;
53694;SDS011;39588;51.124;7.190;2022-09-24T00:31:49;3.77;;;2.57;;
53694;SDS011;39588;51.124;7.190;2022-09-24T00:34:16;5.00;;;2.60;;
53694;SDS011;39588;51.124;7.190;2022-09-24T00:36:43;4.17;;;3.20;;
53694;SDS011;39588;51.124;7.190;2022-09-24T00:39:10;4.50;;;3.47;;
53694;SDS011;39588;51.124;7.190;2022-09-24T00:41:36;3.63;;;3.13;;
53694;SDS011;39588;51.124;7.190;2022-09-24T00:47:09;4.23;;;3.43;;
53694;SDS011;39588;51.124;7.190;2022-09-24T00:49:50;5.30;;;3.77;;
53694;SDS011;39588;51.124;7.190;2022-09-24T00:52:16;3.37;;;2.93;;
53694;SDS011;39588;51.124;7.190;2022-09-24T00:54:43;5.50;;;3.43;;
53694;SDS011;39588;51.124;7.190;2022-09-24T00:57:09;7.30;;;3.43;;
53694;SDS011;39588;51.124;7.190;2022-09-24T00:59:36;4.47;;;3.30;;
53694;SDS011;39588;51.124;7.190;2022-09-24T01:02:02;3.10;;;2.87;;
53694;SDS011;39588;51.124;7.190;2022-09-24T01:04:28;2.90;;;2.70;;
53694;SDS011;39588;51.124;7.190;2022-09-24T01:06:54;3.53;;;3.10;;
53694;SDS011;39588;51.124;7.190;2022-09-24T01:09:21;5.27;;;3.67;;
53694;SDS011;39588;51.124;7.190;2022-09-24T01:31:16;4.30;;;3.33;;
53694;SDS011;39588;51.124;7.190;2022-09-24T01:33:53;5.40;;;2.97;;
53694;SDS011;39588;51.124;7.190;2022-09-24T01:36:23;3.07;;;2.77;;
53694;SDS011;39588;51.124;7.190;2022-09-24T01:38:51;3.37;;;2.80;;
53694;SDS011;39588;51.124;7.190;2022-09-24T01:41:19;3.50;;;2.90;;
53694;SDS011;39588;51.124;7.190;2022-09-24T01:43:46;7.13;;;3.37;;
53694;SDS011;39588;51.124;7.190;2022-09-24T01:46:12;5.00;;;3.37;;
53694;SDS011;39588;51.124;7.190;2022-09-24T01:48:41;4.10;;;2.87;;
53694;SDS011;39588;51.124;7.190;2022-09-24T01:51:15;5.03;;;3.67;;
53694;SDS011;39588;51.124;7.190;2022-09-24T01:59:01;6.73;;;3.47;;
53694;SDS011;39588;51.124;7.190;2022-09-24T02:01:41;4.03;;;3.23;;
53694;SDS011;39588;51.124;7.190;2022-09-24T02:04:15;4.43;;;2.83;;
53694;SDS011;39588;51.124;7.190;2022-09-24T02:07:05;4.80;;;3.20;;
53694;SDS011;39588;51.124;7.190;2022-09-24T02:09:38;11.43;;;2.93;;
53694;SDS011;39588;51.124;7.190;2022-09-24T02:14:53;5.60;;;3.70;;
53694;SDS011;39588;51.124;7.190;2022-09-24T02:17:30;7.17;;;4.00;;
53694;SDS011;39588;51.124;7.190;2022-09-24T02:19:59;4.37;;;3.33;;
53694;SDS011;39588;51.124;7.190;2022-09-24T02:22:28;9.13;;;3.10;;
53694;SDS011;39588;51.124;7.190;2022-09-24T02:24:56;6.07;;;3.83;;
53694;SDS011;39588;51.124;7.190;2022-09-24T02:27:24;6.80;;;3.33;;
53694;SDS011;39588;51.124;7.190;2022-09-24T02:29:54;8.50;;;3.17;;
53694;SDS011;39588;51.124;7.190;2022-09-24T02:32:21;8.40;;;3.70;;
53694;SDS011;39588;51.124;7.190;2022-09-24T02:36:17;4.93;;;3.60;;
53694;SDS011;39588;51.124;7.190;2022-09-24T02:38:43;7.37;;;4.17;;
53694;SDS011;39588;51.124;7.190;2022-09-24T02:41:10;5.20;;;3.90;;
53694;SDS011;39588;51.124;7.190;2022-09-24T02:43:37;4.37;;;3.07;;
53694;SDS011;39588;51.124;7.190;2022-09-24T02:46:05;5.83;;;4.80;;
53694;SDS011;39588;51.124;7.190;2022-09-24T02:48:34;4.00;;;3.50;;
53694;SDS011;39588;51.124;7.190;2022-09-24T02:51:01;9.60;;;3.83;;
53694;SDS011;39588;51.124;7.190;2022-09-24T02:53:28;5.13;;;3.47;;
53694;SDS011;39588;51.124;7.190;2022-09-24T02:55:54;7.10;;;3.93;;
53694;SDS011;39588;51.124;7.190;2022-09-24T02:58:19;4.50;;;3.50;;
53694;SDS011;39588;51.124;7.190;2022-09-24T03:00:45;4.03;;;3.63;;
53694;SDS011;39588;51.124;7.190;2022-09-24T03:03:11;3.33;;;3.03;;
53694;SDS011;39588;51.124;7.190;2022-09-24T03:05:36;4.17;;;3.40;;
53694;SDS011;39588;51.124;7.190;2022-09-24T03:08:02;4.53;;;3.63;;
53694;SDS011;39588;51.124;7.190;2022-09-24T03:10:28;4.47;;;3.60;;
53694;SDS011;39588;51.124;7.190;2022-09-24T03:12:55;15.70;;;3.43;;
53694;SDS011;39588;51.124;7.190;2022-09-24T03:15:20;4.53;;;3.90;;
53694;SDS011;39588;51.124;7.190;2022-09-24T03:17:46;10.50;;;4.67;;
53694;SDS011;39588;51.124;7.190;2022-09-24T03:20:12;8.27;;;4.03;;
53694;SDS011;39588;51.124;7.190;2022-09-24T03:22:38;4.80;;;3.83;;
53694;SDS011;39588;51.124;7.190;2022-09-24T03:25:04;5.23;;;3.67;;
53694;SDS011;39588;51.124;7.190;2022-09-24T03:27:31;6.87;;;3.73;;
53694;SDS011;39588;51.124;7.190;2022-09-24T03:29:57;6.53;;;4.57;;
53694;SDS011;39588;51.124;7.190;2022-09-24T03:32:41;8.07;;;4.27;;
53694;SDS011;39588;51.124;7.190;2022-09-24T03:35:07;6.40;;;5.00;;
53694;SDS011;39588;51.124;7.190;2022-09-24T03:37:35;9.97;;;4.80;;
53694;SDS011;39588;51.124;7.190;2022-09-24T03:40:01;6.13;;;4.23;;
53694;SDS011;39588;51.124;7.190;2022-09-24T03:42:28;8.23;;;3.57;;
53694;SDS011;39588;51.124;7.190;2022-09-24T03:44:53;5.07;;;3.80;;
53694;SDS011;39588;51.124;7.190;2022-09-24T03:47:19;5.77;;;4.23;;
53694;SDS011;39588;51.124;7.190;2022-09-24T03:49:45;7.63;;;4.67;;
53694;SDS011;39588;51.124;7.190;2022-09-24T03:52:11;6.33;;;4.40;;
53694;SDS011;39588;51.124;7.190;2022-09-24T03:54:37;4.67;;;3.97;;
53694;SDS011;39588;51.124;7.190;2022-09-24T03:57:02;5.43;;;4.07;;
53694;SDS011;39588;51.124;7.190;2022-09-24T03:59:28;7.60;;;4.00;;
53694;SDS011;39588;51.124;7.190;2022-09-24T04:01:54;11.33;;;4.53;;
53694;SDS011;39588;51.124;7.190;2022-09-24T04:04:20;6.53;;;4.47;;
53694;SDS011;39588;51.124;7.190;2022-09-24T04:06:45;4.73;;;4.20;;
53694;SDS011;39588;51.124;7.190;2022-09-24T04:09:11;8.30;;;4.50;;
53694;SDS011;39588;51.124;7.190;2022-09-24T04:11:37;6.33;;;4.30;;
53694;SDS011;39588;51.124;7.190;2022-09-24T04:14:02;4.90;;;4.40;;
53694;SDS011;39588;51.124;7.190;2022-09-24T04:16:28;11.10;;;4.87;;
53694;SDS011;39588;51.124;7.190;2022-09-24T04:18:54;6.27;;;4.40;;
53694;SDS011;39588;51.124;7.190;2022-09-24T04:21:20;4.40;;;4.00;;
53694;SDS011;39588;51.124;7.190;2022-09-24T04:23:46;5.80;;;4.47;;
53694;SDS011;39588;51.124;7.190;2022-09-24T04:26:12;10.83;;;4.30;;
53694;SDS011;39588;51.124;7.190;2022-09-24T04:28:39;8.13;;;4.40;;
53694;SDS011;39588;51.124;7.190;2022-09-24T04:31:04;9.30;;;4.30;;
53694;SDS011;39588;51.124;7.190;2022-09-24T04:33:30;8.20;;;5.00;;
53694;SDS011;39588;51.124;7.190;2022-09-24T04:35:56;13.03;;;4.87;;
53694;SDS011;39588;51.124;7.190;2022-09-24T04:38:21;9.43;;;4.77;;
53694;SDS011;39588;51.124;7.190;2022-09-24T04:40:47;12.60;;;4.97;;
53694;SDS011;39588;51.124;7.190;2022-09-24T04:43:13;6.20;;;5.13;;
53694;SDS011;39588;51.124;7.190;2022-09-24T04:45:39;6.17;;;4.37;;
53694;SDS011;39588;51.124;7.190;2022-09-24T04:48:08;8.00;;;5.47;;
53694;SDS011;39588;51.124;7.190;2022-09-24T04:50:33;6.20;;;4.90;;
53694;SDS011;39588;51.124;7.190;2022-09-24T04:52:59;8.00;;;5.83;;
53694;SDS011;39588;51.124;7.190;2022-09-24T04:55:26;9.20;;;6.37;;
53694;SDS011;39588;51.124;7.190;2022-09-24T04:57:55;15.23;;;6.83;;
53694;SDS011;39588;51.124;7.190;2022-09-24T05:00:21;12.27;;;7.10;;
53694;SDS011;39588;51.124;7.190;2022-09-24T05:02:53;10.70;;;7.00;;
53694;SDS011;39588;51.124;7.190;2022-09-24T05:05:21;8.67;;;5.70;;
53694;SDS011;39588;51.124;7.190;2022-09-24T05:07:47;5.17;;;4.27;;
53694;SDS011;39588;51.124;7.190;2022-09-24T05:10:13;9.47;;;5.23;;
53694;SDS011;39588;51.124;7.190;2022-09-24T05:12:39;8.00;;;4.83;;
53694;SDS011;39588;51.124;7.190;2022-09-24T05:15:05;6.77;;;4.80;;
53694;SDS011;39588;51.124;7.190;2022-09-24T05:17:34;9.33;;;6.03;;
53694;SDS011;39588;51.124;7.190;2022-09-24T05:20:23;7.37;;;5.30;;
53694;SDS011;39588;51.124;7.190;2022-09-24T05:22:49;9.53;;;5.30;;
53694;SDS011;39588;51.124;7.190;2022-09-24T05:25:16;7.37;;;5.87;;
53694;SDS011;39588;51.124;7.190;2022-09-24T05:27:43;6.70;;;5.53;;
53694;SDS011;39588;51.124;7.190;2022-09-24T05:30:13;16.27;;;5.97;;
53694;SDS011;39588;51.124;7.190;2022-09-24T05:32:39;7.83;;;5.97;;
53694;SDS011;39588;51.124;7.190;2022-09-24T05:35:05;8.37;;;6.30;;
53694;SDS011;39588;51.124;7.190;2022-09-24T05:37:34;5.27;;;4.27;;
53694;SDS011;39588;51.124;7.190;2022-09-24T05:40:01;12.13;;;5.07;;
53694;SDS011;39588;51.124;7.190;2022-09-24T05:42:48;12.77;;;5.00;;
53694;SDS011;39588;51.124;7.190;2022-09-24T05:45:14;8.03;;;5.67;;
53694;SDS011;39588;51.124;7.190;2022-09-24T05:47:43;7.07;;;5.30;;
53694;SDS011;39588;51.124;7.190;2022-09-24T05:50:10;6.37;;;5.57;;
53694;SDS011;39588;51.124;7.190;2022-09-24T05:52:37;6.37;;;5.53;;
53694;SDS011;39588;51.124;7.190;2022-09-24T05:55:04;11.63;;;5.63;;
53694;SDS011;39588;51.124;7.190;2022-09-24T05:57:32;6.57;;;5.30;;
53694;SDS011;39588;51.124;7.190;2022-09-24T05:59:57;9.77;;;6.00;;
53694;SDS011;39588;51.124;7.190;2022-09-24T06:02:23;10.30;;;5.97;;
53694;SDS011;39588;51.124;7.190;2022-09-24T06:04:48;6.97;;;5.57;;
53694;SDS011;39588;51.124;7.190;2022-09-24T06:07:14;10.07;;;5.67;;
53694;SDS011;39588;51.124;7.190;2022-09-24T06:09:39;9.17;;;6.40;;
53694;SDS011;39588;51.124;7.190;2022-09-24T06:12:06;7.70;;;5.67;;
53694;SDS011;39588;51.124;7.190;2022-09-24T06:14:32;7.97;;;7.03;;
53694;SDS011;39588;51.124;7.190;2022-09-24T06:16:58;10.83;;;6.40;;
53694;SDS011;39588;51.124;7.190;2022-09-24T06:19:23;8.43;;;6.20;;
53694;SDS011;39588;51.124;7.190;2022-09-24T06:21:49;9.60;;;6.53;;
53694;SDS011;39588;51.124;7.190;2022-09-24T06:24:15;8.77;;;6.27;;
53694;SDS011;39588;51.124;7.190;2022-09-24T06:26:40;7.67;;;5.33;;
53694;SDS011;39588;51.124;7.190;2022-09-24T06:29:06;10.10;;;4.97;;
53694;SDS011;39588;51.124;7.190;2022-09-24T06:31:32;7.93;;;5.27;;
53694;SDS011;39588;51.124;7.190;2022-09-24T06:33:58;7.23;;;4.43;;
53694;SDS011;39588;51.124;7.190;2022-09-24T06:36:24;6.67;;;5.17;;
53694;SDS011;39588;51.124;7.190;2022-09-24T06:38:50;5.57;;;4.53;;
53694;SDS011;39588;51.124;7.190;2022-09-24T06:41:16;7.87;;;4.70;;
53694;SDS011;39588;51.124;7.190;2022-09-24T06:43:42;5.43;;;4.87;;
53694;SDS011;39588;51.124;7.190;2022-09-24T06:46:08;8.40;;;5.37;;
53694;SDS011;39588;51.124;7.190;2022-09-24T06:48:34;9.47;;;4.93;;
53694;SDS011;39588;51.124;7.190;2022-09-24T06:51:03;6.57;;;5.17;;
53694;SDS011;39588;51.124;7.190;2022-09-24T06:53:29;8.33;;;5.47;;
53694;SDS011;39588;51.124;7.190;2022-09-24T06:55:56;9.30;;;5.60;;
53694;SDS011;39588;51.124;7.190;2022-09-24T06:58:23;8.77;;;6.00;;
53694;SDS011;39588;51.124;7.190;2022-09-24T07:00:53;8.13;;;5.00;;
53694;SDS011;39588;51.124;7.190;2022-09-24T07:03:24;8.73;;;6.23;;
53694;SDS011;39588;51.124;7.190;2022-09-24T07:05:51;7.30;;;6.03;;
53694;SDS011;39588;51.124;7.190;2022-09-24T07:08:16;12.97;;;5.70;;
53694;SDS011;39588;51.124;7.190;2022-09-24T07:10:46;6.80;;;5.10;;
53694;SDS011;39588;51.124;7.190;2022-09-24T07:13:19;7.67;;;5.90;;
53694;SDS011;39588;51.124;7.190;2022-09-24T07:15:48;7.30;;;5.67;;
53694;SDS011;39588;51.124;7.190;2022-09-24T07:18:15;11.30;;;6.03;;
53694;SDS011;39588;51.124;7.190;2022-09-24T07:20:41;7.07;;;5.60;;
53694;SDS011;39588;51.124;7.190;2022-09-24T07:23:08;8.30;;;5.07;;
53694;SDS011;39588;51.124;7.190;2022-09-24T07:25:34;6.50;;;5.30;;
53694;SDS011;39588;51.124;7.190;2022-09-24T07:28:06;8.63;;;5.57;;
53694;SDS011;39588;51.124;7.190;2022-09-24T07:30:34;6.70;;;4.97;;
53694;SDS011;39588;51.124;7.190;2022-09-24T07:33:00;10.50;;;5.23;;
53694;SDS011;39588;51.124;7.190;2022-09-24T07:35:26;8.40;;;5.50;;
53694;SDS011;39588;51.124;7.190;2022-09-24T07:37:56;6.37;;;4.73;;
53694;SDS011;39588;51.124;7.190;2022-09-24T07:40:23;7.00;;;5.17;;
53694;SDS011;39588;51.124;7.190;2022-09-24T07:42:50;5.67;;;4.57;;
53694;SDS011;39588;51.124;7.190;2022-09-24T07:45:18;9.47;;;5.23;;
53694;SDS011;39588;51.124;7.190;2022-09-24T07:47:44;6.80;;;5.43;;
53694;SDS011;39588;51.124;7.190;2022-09-24T07:50:09;13.07;;;5.83;;
53694;SDS011;39588;51.124;7.190;2022-09-24T07:52:37;7.30;;;5.47;;
53694;SDS011;39588;51.124;7.190;2022-09-24T07:55:03;7.03;;;5.53;;
53694;SDS011;39588;51.124;7.190;2022-09-24T07:57:29;9.13;;;6.00;;
53694;SDS011;39588;51.124;7.190;2022-09-24T07:59:55;11.87;;;7.53;;
53694;SDS011;39588;51.124;7.190;2022-09-24T08:02:21;17.93;;;8.13;;
53694;SDS011;39588;51.124;7.190;2022-09-24T08:04:46;18.73;;;7.47;;
53694;SDS011;39588;51.124;7.190;2022-09-24T08:07:13;6.07;;;4.97;;
53694;SDS011;39588;51.124;7.190;2022-09-24T08:09:39;10.23;;;4.57;;
53694;SDS011;39588;51.124;7.190;2022-09-24T08:12:05;12.67;;;5.57;;
53694;SDS011;39588;51.124;7.190;2022-09-24T08:14:31;14.20;;;5.60;;
53694;SDS011;39588;51.124;7.190;2022-09-24T08:16:57;12.97;;;5.50;;
53694;SDS011;39588;51.124;7.190;2022-09-24T08:19:23;31.27;;;10.23;;
53694;SDS011;39588;51.124;7.190;2022-09-24T08:21:49;13.63;;;5.37;;
53694;SDS011;39588;51.124;7.190;2022-09-24T08:24:15;6.57;;;4.83;;
53694;SDS011;39588;51.124;7.190;2022-09-24T08:26:41;7.73;;;5.30;;
53694;SDS011;39588;51.124;7.190;2022-09-24T08:29:07;9.67;;;4.67;;
53694;SDS011;39588;51.124;7.190;2022-09-24T08:31:32;6.77;;;5.43;;
53694;SDS011;39588;51.124;7.190;2022-09-24T08:33:59;7.57;;;4.60;;
53694;SDS011;39588;51.124;7.190;2022-09-24T08:36:25;6.77;;;5.87;;
53694;SDS011;39588;51.124;7.190;2022-09-24T08:38:52;7.90;;;5.97;;
53694;SDS011;39588;51.124;7.190;2022-09-24T08:44:17;10.53;;;5.77;;
53694;SDS011;39588;51.124;7.190;2022-09-24T08:47:11;6.77;;;5.20;;
53694;SDS011;39588;51.124;7.190;2022-09-24T08:49:48;7.77;;;5.60;;
53694;SDS011;39588;51.124;7.190;2022-09-24T08:55:16;9.80;;;6.37;;
53694;SDS011;39588;51.124;7.190;2022-09-24T08:57:53;13.77;;;6.40;;
53694;SDS011;39588;51.124;7.190;2022-09-24T09:00:35;11.47;;;6.03;;
53694;SDS011;39588;51.124;7.190;2022-09-24T09:03:10;7.63;;;5.70;;
53694;SDS011;39588;51.124;7.190;2022-09-24T09:11:46;8.57;;;5.77;;
53694;SDS011;39588;51.124;7.190;2022-09-24T09:14:19;12.90;;;6.17;;
53694;SDS011;39588;51.124;7.190;2022-09-24T09:16:59;10.90;;;6.20;;
53694;SDS011;39588;51.124;7.190;2022-09-24T09:19:32;13.23;;;7.00;;
53694;SDS011;39588;51.124;7.190;2022-09-24T09:22:00;12.33;;;6.23;;
53694;SDS011;39588;51.124;7.190;2022-09-24T09:24:48;9.63;;;6.10;;
53694;SDS011;39588;51.124;7.190;2022-09-24T09:27:15;9.07;;;6.47;;
53694;SDS011;39588;51.124;7.190;2022-09-24T09:29:49;9.10;;;5.60;;
53694;SDS011;39588;51.124;7.190;2022-09-24T09:35:34;11.13;;;7.13;;
53694;SDS011;39588;51.124;7.190;2022-09-24T09:43:21;15.67;;;6.10;;
53694;SDS011;39588;51.124;7.190;2022-09-24T09:49:01;11.67;;;7.13;;
53694;SDS011;39588;51.124;7.190;2022-09-24T09:51:33;13.17;;;8.03;;
53694;SDS011;39588;51.124;7.190;2022-09-24T09:54:03;18.00;;;7.73;;
53694;SDS011;39588;51.124;7.190;2022-09-24T09:59:02;17.63;;;7.70;;
53694;SDS011;39588;51.124;7.190;2022-09-24T10:01:42;10.90;;;6.50;;
53694;SDS011;39588;51.124;7.190;2022-09-24T10:04:27;16.57;;;7.93;;
53694;SDS011;39588;51.124;7.190;2022-09-24T10:07:12;11.90;;;7.63;;
53694;SDS011;39588;51.124;7.190;2022-09-24T10:09:40;7.13;;;5.70;;
53694;SDS011;39588;51.124;7.190;2022-09-24T10:14:38;13.63;;;6.50;;
53694;SDS011;39588;51.124;7.190;2022-09-24T10:17:04;12.20;;;6.50;;
53694;SDS011;39588;51.124;7.190;2022-09-24T10:19:32;10.33;;;6.90;;
53694;SDS011;39588;51.124;7.190;2022-09-24T10:22:08;13.17;;;7.07;;
53694;SDS011;39588;51.124;7.190;2022-09-24T10:24:46;9.67;;;5.97;;
53694;SDS011;39588;51.124;7.190;2022-09-24T10:27:13;8.47;;;6.17;;
53694;SDS011;39588;51.124;7.190;2022-09-24T10:29:52;12.40;;;5.00;;
53694;SDS011;39588;51.124;7.190;2022-09-24T10:32:38;8.43;;;5.03;;
53694;SDS011;39588;51.124;7.190;2022-09-24T10:35:18;8.80;;;5.70;;
53694;SDS011;39588;51.124;7.190;2022-09-24T10:37:49;11.47;;;5.77;;
53694;SDS011;39588;51.124;7.190;2022-09-24T10:40:21;14.17;;;6.60;;
53694;SDS011;39588;51.124;7.190;2022-09-24T10:42:59;8.97;;;5.63;;
53694;SDS011;39588;51.124;7.190;2022-09-24T10:46:09;11.67;;;6.60;;
53694;SDS011;39588;51.124;7.190;2022-09-24T10:48:23;13.10;;;6.10;;
53694;SDS011;39588;51.124;7.190;2022-09-24T10:56:27;8.83;;;6.10;;
53694;SDS011;39588;51.124;7.190;2022-09-24T10:59:14;8.83;;;6.23;;
53694;SDS011;39588;51.124;7.190;2022-09-24T11:07:40;10.03;;;6.47;;
53694;SDS011;39588;51.124;7.190;2022-09-24T11:10:31;8.70;;;5.03;;
53694;SDS011;39588;51.124;7.190;2022-09-24T11:32:05;9.70;;;5.57;;
53694;SDS011;39588;51.124;7.190;2022-09-24T11:57:14;6.80;;;5.33;;
53694;SDS011;39588;51.124;7.190;2022-09-24T12:02:25;5.70;;;4.87;;
53694;SDS011;39588;51.124;7.190;2022-09-24T12:05:16;7.57;;;4.20;;
53694;SDS011;39588;51.124;7.190;2022-09-24T12:07:48;7.03;;;4.60;;
53694;SDS011;39588;51.124;7.190;2022-09-24T12:12:49;8.53;;;5.23;;
53694;SDS011;39588;51.124;7.190;2022-09-24T12:15:19;8.03;;;4.90;;
53694;SDS011;39588;51.124;7.190;2022-09-24T12:17:52;5.73;;;4.37;;
53694;SDS011;39588;51.124;7.190;2022-09-24T12:20:28;5.30;;;3.80;;
53694;SDS011;39588;51.124;7.190;2022-09-24T12:22:57;8.63;;;4.23;;
53694;SDS011;39588;51.124;7.190;2022-09-24T12:25:31;5.53;;;4.23;;
53694;SDS011;39588;51.124;7.190;2022-09-24T12:28:03;5.70;;;4.40;;
53694;SDS011;39588;51.124;7.190;2022-09-24T12:30:44;5.20;;;4.23;;
53694;SDS011;39588;51.124;7.190;2022-09-24T12:46:32;5.77;;;4.13;;
53694;SDS011;39588;51.124;7.190;2022-09-24T12:49:03;5.47;;;3.93;;
53694;SDS011;39588;51.124;7.190;2022-09-24T12:51:35;6.57;;;4.03;;
53694;SDS011;39588;51.124;7.190;2022-09-24T12:59:55;9.37;;;3.60;;
53694;SDS011;39588;51.124;7.190;2022-09-24T13:07:57;6.03;;;3.63;;
53694;SDS011;39588;51.124;7.190;2022-09-24T13:10:25;4.50;;;3.37;;
53694;SDS011;39588;51.124;7.190;2022-09-24T13:12:51;6.77;;;4.40;;
53694;SDS011;39588;51.124;7.190;2022-09-24T13:18:16;4.87;;;3.50;;
53694;SDS011;39588;51.124;7.190;2022-09-24T13:23:41;7.30;;;4.33;;
53694;SDS011;39588;51.124;7.190;2022-09-24T13:26:11;5.70;;;3.83;;
53694;SDS011;39588;51.124;7.190;2022-09-24T13:29:02;8.50;;;4.10;;
53694;SDS011;39588;51.124;7.190;2022-09-24T13:36:39;4.63;;;3.73;;
53694;SDS011;39588;51.124;7.190;2022-09-24T13:39:23;4.83;;;3.73;;
53694;SDS011;39588;51.124;7.190;2022-09-24T13:44:51;4.83;;;3.53;;
53694;SDS011;39588;51.124;7.190;2022-09-24T13:50:06;7.10;;;3.80;;
53694;SDS011;39588;51.124;7.190;2022-09-24T13:52:54;5.07;;;3.43;;
53694;SDS011;39588;51.124;7.190;2022-09-24T13:55:25;4.57;;;3.20;;
53694;SDS011;39588;51.124;7.190;2022-09-24T13:57:57;5.90;;;4.10;;
53694;SDS011;39588;51.124;7.190;2022-09-24T14:00:23;4.80;;;3.10;;
53694;SDS011;39588;51.124;7.190;2022-09-24T14:03:11;4.27;;;3.40;;
53694;SDS011;39588;51.124;7.190;2022-09-24T14:05:59;6.77;;;3.40;;
53694;SDS011;39588;51.124;7.190;2022-09-24T14:08:33;6.07;;;3.50;;
53694;SDS011;39588;51.124;7.190;2022-09-24T14:11:04;4.40;;;3.03;;
53694;SDS011;39588;51.124;7.190;2022-09-24T14:13:34;5.60;;;3.57;;
53694;SDS011;39588;51.124;7.190;2022-09-24T14:16:11;6.17;;;3.23;;
53694;SDS011;39588;51.124;7.190;2022-09-24T14:18:44;6.03;;;3.40;;
53694;SDS011;39588;51.124;7.190;2022-09-24T14:23:46;5.63;;;3.73;;
53694;SDS011;39588;51.124;7.190;2022-09-24T14:26:21;4.60;;;3.20;;
53694;SDS011;39588;51.124;7.190;2022-09-24T14:29:07;4.90;;;3.47;;
53694;SDS011;39588;51.124;7.190;2022-09-24T14:31:43;3.20;;;2.90;;
53694;SDS011;39588;51.124;7.190;2022-09-24T14:34:23;5.23;;;3.30;;
53694;SDS011;39588;51.124;7.190;2022-09-24T14:36:55;5.73;;;3.47;;
53694;SDS011;39588;51.124;7.190;2022-09-24T14:39:24;8.20;;;4.03;;
53694;SDS011;39588;51.124;7.190;2022-09-24T14:41:53;5.07;;;3.50;;
53694;SDS011;39588;51.124;7.190;2022-09-24T14:44:25;5.97;;;3.40;;
53694;SDS011;39588;51.124;7.190;2022-09-24T14:46:53;6.93;;;4.27;;
53694;SDS011;39588;51.124;7.190;2022-09-24T14:49:27;4.73;;;3.23;;
53694;SDS011;39588;51.124;7.190;2022-09-24T14:52:04;11.50;;;3.47;;
53694;SDS011;39588;51.124;7.190;2022-09-24T14:59:47;7.83;;;3.57;;
53694;SDS011;39588;51.124;7.190;2022-09-24T15:02:32;5.73;;;4.10;;
53694;SDS011;39588;51.124;7.190;2022-09-24T15:05:02;4.30;;;3.43;;
53694;SDS011;39588;51.124;7.190;2022-09-24T15:07:30;6.23;;;3.97;;
53694;SDS011;39588;51.124;7.190;2022-09-24T15:09:57;5.27;;;4.30;;
53694;SDS011;39588;51.124;7.190;2022-09-24T15:14:58;9.77;;;4.73;;
53694;SDS011;39588;51.124;7.190;2022-09-24T15:17:28;7.43;;;4.60;;
53694;SDS011;39588;51.124;7.190;2022-09-24T15:19:58;8.47;;;4.00;;
53694;SDS011;39588;51.124;7.190;2022-09-24T15:22:24;4.70;;;3.17;;
53694;SDS011;39588;51.124;7.190;2022-09-24T15:24:52;13.10;;;4.57;;
53694;SDS011;39588;51.124;7.190;2022-09-24T15:29:57;7.83;;;4.77;;
53694;SDS011;39588;51.124;7.190;2022-09-24T15:32:25;8.33;;;4.83;;
53694;SDS011;39588;51.124;7.190;2022-09-24T15:34:52;6.63;;;4.63;;
53694;SDS011;39588;51.124;7.190;2022-09-24T15:37:19;7.37;;;4.47;;
53694;SDS011;39588;51.124;7.190;2022-09-24T15:39:51;9.50;;;4.30;;
53694;SDS011;39588;51.124;7.190;2022-09-24T15:42:18;9.43;;;5.63;;
53694;SDS011;39588;51.124;7.190;2022-09-24T15:44:49;8.17;;;4.90;;
53694;SDS011;39588;51.124;7.190;2022-09-24T15:47:15;9.30;;;5.27;;
53694;SDS011;39588;51.124;7.190;2022-09-24T15:49:42;8.67;;;4.93;;
53694;SDS011;39588;51.124;7.190;2022-09-24T15:52:30;9.77;;;5.00;;
53694;SDS011;39588;51.124;7.190;2022-09-24T15:54:56;7.97;;;4.90;;
53694;SDS011;39588;51.124;7.190;2022-09-24T15:57:25;6.30;;;4.17;;
53694;SDS011;39588;51.124;7.190;2022-09-24T15:59:51;10.53;;;4.63;;
53694;SDS011;39588;51.124;7.190;2022-09-24T16:02:21;5.73;;;4.43;;
53694;SDS011;39588;51.124;7.190;2022-09-24T16:04:49;7.73;;;5.07;;
53694;SDS011;39588;51.124;7.190;2022-09-24T16:07:15;6.63;;;5.03;;
53694;SDS011;39588;51.124;7.190;2022-09-24T16:09:42;11.43;;;5.30;;
53694;SDS011;39588;51.124;7.190;2022-09-24T16:12:09;11.30;;;6.27;;
53694;SDS011;39588;51.124;7.190;2022-09-24T16:14:38;10.70;;;6.10;;
53694;SDS011;39588;51.124;7.190;2022-09-24T16:17:05;7.97;;;5.67;;
53694;SDS011;39588;51.124;7.190;2022-09-24T16:19:30;7.13;;;5.23;;
53694;SDS011;39588;51.124;7.190;2022-09-24T16:21:56;9.77;;;5.57;;
53694;SDS011;39588;51.124;7.190;2022-09-24T16:24:23;8.13;;;4.50;;
53694;SDS011;39588;51.124;7.190;2022-09-24T16:26:49;11.17;;;5.83;;
53694;SDS011;39588;51.124;7.190;2022-09-24T16:31:44;8.73;;;6.07;;
53694;SDS011;39588;51.124;7.190;2022-09-24T16:34:10;10.10;;;5.80;;
53694;SDS011;39588;51.124;7.190;2022-09-24T16:36:36;7.80;;;5.30;;
53694;SDS011;39588;51.124;7.190;2022-09-24T16:39:02;8.20;;;5.97;;
53694;SDS011;39588;51.124;7.190;2022-09-24T16:41:28;13.97;;;6.93;;
53694;SDS011;39588;51.124;7.190;2022-09-24T16:43:58;16.37;;;7.00;;
53694;SDS011;39588;51.124;7.190;2022-09-24T16:46:25;11.60;;;5.90;;
53694;SDS011;39588;51.124;7.190;2022-09-24T16:48:52;11.83;;;7.30;;
53694;SDS011;39588;51.124;7.190;2022-09-24T16:51:18;8.30;;;6.03;;
53694;SDS011;39588;51.124;7.190;2022-09-24T16:53:52;13.60;;;6.93;;
53694;SDS011;39588;51.124;7.190;2022-09-24T16:56:19;11.00;;;7.33;;
53694;SDS011;39588;51.124;7.190;2022-09-24T16:58:45;8.70;;;6.00;;
53694;SDS011;39588;51.124;7.190;2022-09-24T17:01:12;15.30;;;7.47;;
53694;SDS011;39588;51.124;7.190;2022-09-24T17:03:39;9.93;;;6.13;;
53694;SDS011;39588;51.124;7.190;2022-09-24T17:06:05;9.50;;;6.53;;
53694;SDS011;39588;51.124;7.190;2022-09-24T17:08:35;12.23;;;6.93;;
53694;SDS011;39588;51.124;7.190;2022-09-24T17:11:19;10.50;;;7.13;;
53694;SDS011;39588;51.124;7.190;2022-09-24T17:13:46;10.77;;;6.77;;
53694;SDS011;39588;51.124;7.190;2022-09-24T17:16:12;15.80;;;7.30;;
53694;SDS011;39588;51.124;7.190;2022-09-24T17:18:39;9.03;;;6.40;;
53694;SDS011;39588;51.124;7.190;2022-09-24T17:21:06;17.23;;;7.57;;
53694;SDS011;39588;51.124;7.190;2022-09-24T17:23:33;11.13;;;7.50;;
53694;SDS011;39588;51.124;7.190;2022-09-24T17:26:03;16.10;;;8.80;;
53694;SDS011;39588;51.124;7.190;2022-09-24T17:28:39;13.63;;;8.70;;
53694;SDS011;39588;51.124;7.190;2022-09-24T17:31:06;11.80;;;7.83;;
53694;SDS011;39588;51.124;7.190;2022-09-24T17:33:33;13.50;;;7.70;;
53694;SDS011;39588;51.124;7.190;2022-09-24T17:36:00;14.67;;;8.63;;
53694;SDS011;39588;51.124;7.190;2022-09-24T17:38:27;15.57;;;8.73;;
53694;SDS011;39588;51.124;7.190;2022-09-24T17:40:58;12.43;;;8.20;;
53694;SDS011;39588;51.124;7.190;2022-09-24T17:43:25;12.90;;;8.30;;
53694;SDS011;39588;51.124;7.190;2022-09-24T17:45:56;15.87;;;8.33;;
53694;SDS011;39588;51.124;7.190;2022-09-24T17:48:33;18.40;;;8.03;;
53694;SDS011;39588;51.124;7.190;2022-09-24T17:51:00;18.73;;;9.13;;
53694;SDS011;39588;51.124;7.190;2022-09-24T17:53:29;16.93;;;8.93;;